Impacts TAF Board INFO
FOR SITUATIONAL AWARENESS. NOT TO BE USED FOR FLIGHT PLANNING PURPOSES.
IDs:

KMCO - Orlando Intl, FL, US

Issued at 2343 UTC 17 Aug 2018
Updated at 0128 UTC 18 Aug 2018
Potential Impact None Slight Moderate High
Time<<18/14Z 18/15Z 18/16Z 18/17Z 18/18Z 18/19Z 18/20Z 18/21Z 18/22Z 18/23Z 19/00Z 19/01Z 19/02Z>>
Type PRVL PRVL PRVL PRVL PRVL PRVL PRVL
  [TEMP]  
PRVL
  [TEMP]  
PRVL PRVL PRVL PRVL PRVL
VIS >6 >6 >6 >6 >6 >6 >6 >6 >6 >6 >6 >6 >6
CIG -- -- -- -- -- -- --
  [--]  
--
  [--]  
-- -- -- -- --
Cover SKC SKC FEW FEW FEW FEW FEW
  [SCT]  
FEW
  [SCT]  
FEW FEW FEW SKC SKC
FltCat VFR VFR VFR VFR VFR VFR VFR
  [VFR]  
VFR
  [VFR]  
VFR VFR VFR VFR VFR
WX -- -- -- -- -- -- --
  [--]  
--
  [--]  
-- -- -- -- --
WDir 140 140 170 170 170 170 170
[110]
170
[110]
170 170 170 160 160
WSpd 3 3 5 5 5 5 5
  [9]  
5
  [9]  
5 5 5 3 3
WGst -- -- -- -- -- -- --
  [--]  
--
  [--]  
-- -- -- -- --

Raw TAF
KMCO 172343Z 1800/1906 14003KT P6SM SKC
  FM181600 17005KT P6SM FEW045
  TEMPO 1820/1822 11009KT SCT045
  FM190100 16003KT P6SM SKC


METAR Board
Radar Display
Forecast Discussion

FOR SITUATIONAL AWARENESS. NOT TO BE USED FOR FLIGHT PLANNING PURPOSES.